Time;durP1;ratioP1;P1;durP2;ratioP2;P2;SDS_P1;SDS_P2;PMS_P1;PMS_P2;Temp;Humidity;BMP_temperature;BMP_pressure;BME280_temperature;BME280_humidity;BME280_pressure;Samples;Min_cycle;Max_cycle;Signal;HPM_P1;HPM_P2
2021/05/22 00:01:57;;;;;;;4.07;2.30;;;11.60;99.90;;;;;;5088883;28;20028;-76
2021/05/22 00:04:22;;;;;;;3.97;2.15;;;11.50;99.90;;;;;;5088856;28;20036;-77
2021/05/22 00:06:48;;;;;;;2.15;1.70;;;11.40;99.90;;;;;;5089642;28;20024;-76
2021/05/22 00:09:13;;;;;;;2.75;1.80;;;11.30;99.90;;;;;;5089387;28;20021;-76
2021/05/22 00:11:39;;;;;;;4.13;2.03;;;11.30;99.90;;;;;;5089501;28;20048;-76
2021/05/22 00:14:05;;;;;;;5.28;2.58;;;11.20;99.90;;;;;;5089117;28;20114;-76
2021/05/22 00:16:31;;;;;;;3.20;2.03;;;11.10;99.90;;;;;;5089280;28;20028;-76
2021/05/22 00:18:57;;;;;;;3.20;1.83;;;11.00;99.90;;;;;;5088491;28;20031;-76
2021/05/22 00:21:22;;;;;;;2.22;1.77;;;10.90;99.90;;;;;;5090079;28;20077;-76
2021/05/22 00:23:48;;;;;;;2.67;2.42;;;10.90;99.90;;;;;;5089043;28;20482;-76
2021/05/22 00:26:14;;;;;;;2.55;1.80;;;10.80;99.90;;;;;;5086193;28;20059;-76
2021/05/22 00:28:40;;;;;;;5.40;2.10;;;10.80;99.90;;;;;;5088199;28;20077;-76
2021/05/22 00:31:05;;;;;;;2.25;1.98;;;10.80;99.90;;;;;;5088734;28;20606;-76
2021/05/22 00:33:31;;;;;;;3.63;2.28;;;10.70;99.90;;;;;;5088635;28;20032;-76
2021/05/22 00:35:56;;;;;;;3.60;2.20;;;10.70;99.90;;;;;;5088733;28;20035;-76
2021/05/22 00:38:22;;;;;;;2.85;2.35;;;10.60;99.90;;;;;;5088988;28;20475;-76
2021/05/22 00:40:47;;;;;;;3.38;2.33;;;10.60;99.90;;;;;;5088818;28;20054;-76
2021/05/22 00:43:13;;;;;;;2.47;2.03;;;10.60;99.90;;;;;;5089310;28;20074;-76
2021/05/22 00:45:38;;;;;;;5.88;2.22;;;10.50;99.90;;;;;;5088813;28;20105;-76
2021/05/22 00:48:04;;;;;;;4.32;2.47;;;10.50;99.90;;;;;;5089479;28;20085;-76
2021/05/22 00:50:36;;;;;;;3.72;2.38;;;10.50;99.90;;;;;;5089231;28;20031;-76
2021/05/22 00:53:05;;;;;;;4.05;2.47;;;10.40;99.90;;;;;;5088621;28;20048;-76
2021/05/22 00:55:30;;;;;;;3.63;2.45;;;10.40;99.90;;;;;;5088246;28;20024;-77
2021/05/22 00:57:57;;;;;;;4.50;2.08;;;10.30;99.90;;;;;;5087328;28;20405;-76
2021/05/22 01:00:46;;;;;;;1.90;1.70;;;10.20;99.90;;;;;;5087910;28;20501;-76
2021/05/22 01:03:29;;;;;;;3.60;2.03;;;10.20;99.90;;;;;;5076728;28;20607;-76
2021/05/22 01:06:15;;;;;;;4.93;2.17;;;10.10;99.90;;;;;;5083992;28;20042;-77
2021/05/22 01:08:50;;;;;;;5.07;2.10;;;10.10;99.90;;;;;;5086940;28;20096;-77
2021/05/22 01:11:25;;;;;;;6.25;2.35;;;10.10;99.90;;;;;;5087473;28;20619;-76
2021/05/22 01:13:58;;;;;;;3.38;2.38;;;10.10;99.90;;;;;;5079509;28;20028;-77
2021/05/22 01:16:23;;;;;;;5.88;2.47;;;10.10;99.90;;;;;;5086036;28;20039;-77
2021/05/22 01:18:49;;;;;;;3.35;2.30;;;10.00;99.90;;;;;;5084153;28;20023;-76
2021/05/22 01:21:15;;;;;;;3.95;2.20;;;10.00;99.90;;;;;;5082010;28;20399;-77
2021/05/22 01:23:51;;;;;;;5.32;2.60;;;9.90;99.90;;;;;;5089221;28;20043;-77
2021/05/22 01:26:17;;;;;;;3.72;2.10;;;9.90;99.90;;;;;;5084977;28;20387;-77
2021/05/22 01:28:44;;;;;;;3.22;2.05;;;9.90;99.90;;;;;;5087360;28;20027;-77
2021/05/22 01:31:11;;;;;;;3.35;2.20;;;9.90;99.90;;;;;;5084665;28;20032;-77
2021/05/22 01:33:37;;;;;;;3.78;2.47;;;9.90;99.90;;;;;;5082491;28;20052;-76
2021/05/22 01:36:04;;;;;;;6.15;2.55;;;9.80;99.90;;;;;;5086040;28;20031;-77
2021/05/22 01:38:29;;;;;;;3.03;2.45;;;9.80;99.90;;;;;;5082553;28;20075;-77
2021/05/22 01:40:54;;;;;;;5.20;2.67;;;9.90;99.90;;;;;;5084150;28;20036;-76
2021/05/22 01:43:20;;;;;;;3.88;2.25;;;9.80;99.90;;;;;;5086528;28;20390;-76
2021/05/22 01:45:48;;;;;;;6.45;2.13;;;9.80;99.90;;;;;;5083444;28;20024;-76
2021/05/22 01:48:17;;;;;;;4.20;2.67;;;9.80;99.90;;;;;;5083357;28;20115;-77
2021/05/22 01:50:58;;;;;;;3.20;2.30;;;9.80;99.90;;;;;;5086137;28;20437;-76
2021/05/22 01:53:24;;;;;;;4.88;2.85;;;9.70;99.90;;;;;;5085471;28;20048;-76
2021/05/22 01:55:50;;;;;;;3.35;2.00;;;9.80;99.90;;;;;;5082665;28;20077;-77
2021/05/22 01:58:16;;;;;;;5.60;2.65;;;9.70;99.90;;;;;;5084631;28;20028;-77
2021/05/22 02:00:44;;;;;;;2.40;1.90;;;9.70;99.90;;;;;;5085958;28;20024;-76
2021/05/22 02:03:18;;;;;;;4.43;2.25;;;9.70;99.90;;;;;;5086507;28;20028;-77
2021/05/22 02:05:46;;;;;;;3.22;2.20;;;9.70;99.90;;;;;;5080060;28;20035;-76
2021/05/22 02:08:17;;;;;;;4.32;2.85;;;9.80;99.90;;;;;;5086017;28;20024;-76
2021/05/22 02:10:45;;;;;;;3.55;1.58;;;9.80;99.90;;;;;;5081182;28;20028;-77
2021/05/22 02:13:11;;;;;;;3.72;1.90;;;10.00;99.90;;;;;;5082595;28;20613;-77
2021/05/22 02:15:39;;;;;;;3.30;2.05;;;10.10;99.90;;;;;;5085421;28;20027;-76
2021/05/22 02:18:07;;;;;;;4.93;1.58;;;10.10;99.90;;;;;;5083402;28;20108;-77
2021/05/22 02:20:34;;;;;;;2.25;1.42;;;10.10;99.90;;;;;;5084063;28;20115;-77
2021/05/22 02:23:03;;;;;;;2.63;1.40;;;10.20;99.90;;;;;;5089419;28;20455;-77
2021/05/22 02:25:28;;;;;;;3.78;1.85;;;10.40;99.90;;;;;;5089710;28;20055;-77
2021/05/22 02:27:58;;;;;;;3.15;1.20;;;10.40;99.90;;;;;;5089416;28;20060;-77
2021/05/22 02:30:25;;;;;;;2.90;1.50;;;10.60;99.90;;;;;;5089820;28;20428;-77
2021/05/22 02:32:51;;;;;;;4.35;1.20;;;10.60;99.90;;;;;;5086510;28;20099;-77
2021/05/22 02:35:19;;;;;;;4.13;1.33;;;10.80;99.90;;;;;;5087634;28;20622;-77
2021/05/22 02:37:48;;;;;;;1.50;1.20;;;10.80;99.90;;;;;;5088702;28;20028;-77
2021/05/22 02:40:18;;;;;;;7.28;1.30;;;10.80;99.90;;;;;;5087071;28;20020;-77
2021/05/22 02:42:50;;;;;;;3.60;1.10;;;10.90;99.90;;;;;;5087136;28;20562;-77
2021/05/22 02:45:17;;;;;;;1.92;1.15;;;11.00;99.90;;;;;;5087785;28;20028;-77
2021/05/22 02:47:45;;;;;;;1.33;1.10;;;11.10;99.90;;;;;;5086952;28;20036;-77
2021/05/22 02:50:12;;;;;;;5.15;1.75;;;11.10;99.90;;;;;;5088341;28;20089;-77
2021/05/22 02:52:39;;;;;;;11.15;1.85;;;11.20;99.90;;;;;;5086880;28;20035;-77
2021/05/22 02:55:06;;;;;;;4.10;0.80;;;11.20;99.90;;;;;;5087137;28;20032;-77
2021/05/22 02:57:33;;;;;;;1.23;1.10;;;11.30;99.90;;;;;;5083055;28;20101;-77
2021/05/22 03:00:00;;;;;;;2.67;1.30;;;11.40;99.90;;;;;;5086228;28;20073;-77
2021/05/22 03:02:27;;;;;;;2.55;1.08;;;11.50;99.90;;;;;;5086842;28;20056;-77
2021/05/22 03:04:54;;;;;;;1.08;0.80;;;11.40;99.90;;;;;;5089038;28;20033;-77
2021/05/22 03:07:19;;;;;;;2.13;1.25;;;11.50;99.90;;;;;;5088011;28;20073;-77
2021/05/22 03:09:46;;;;;;;7.43;1.60;;;11.50;99.90;;;;;;5090552;28;20028;-76
2021/05/22 03:12:15;;;;;;;1.63;1.30;;;11.50;99.90;;;;;;5089315;28;20035;-77
2021/05/22 03:14:41;;;;;;;5.68;1.05;;;11.50;99.90;;;;;;5091067;28;20828;-76
2021/05/22 03:17:06;;;;;;;1.95;1.20;;;11.50;99.90;;;;;;5086645;28;20107;-77
2021/05/22 03:19:32;;;;;;;1.25;1.05;;;11.50;99.90;;;;;;5090354;28;20016;-77
2021/05/22 03:21:57;;;;;;;2.63;1.20;;;11.60;99.90;;;;;;5084286;28;20055;-77
2021/05/22 03:24:23;;;;;;;2.13;0.90;;;11.60;99.90;;;;;;5090363;28;20515;-77
2021/05/22 03:26:48;;;;;;;1.27;1.17;;;11.70;99.90;;;;;;5086738;28;20028;-77
2021/05/22 03:29:14;;;;;;;2.70;1.35;;;11.70;99.90;;;;;;5083774;28;20059;-77
2021/05/22 03:31:39;;;;;;;1.90;1.15;;;11.70;99.90;;;;;;5089985;28;20067;-76
2021/05/22 03:34:05;;;;;;;3.70;1.45;;;11.80;99.90;;;;;;5082041;28;20028;-77
2021/05/22 03:36:30;;;;;;;1.08;0.95;;;11.90;99.90;;;;;;5084511;28;20039;-76
2021/05/22 03:38:55;;;;;;;2.28;1.15;;;11.90;99.90;;;;;;5083988;28;20372;-77
2021/05/22 03:41:21;;;;;;;1.20;1.00;;;12.00;99.90;;;;;;5083958;28;20028;-76
2021/05/22 03:43:47;;;;;;;6.63;1.40;;;12.10;99.90;;;;;;5088196;28;20153;-76
2021/05/22 03:46:12;;;;;;;1.48;1.08;;;12.10;99.90;;;;;;5087390;28;20106;-77
2021/05/22 03:48:37;;;;;;;5.30;1.27;;;12.10;99.90;;;;;;5083337;28;20693;-77
2021/05/22 03:51:03;;;;;;;1.75;1.00;;;12.20;99.90;;;;;;5085030;28;20596;-76
2021/05/22 03:53:29;;;;;;;3.13;1.35;;;12.20;99.90;;;;;;5087522;28;20051;-77
2021/05/22 03:55:54;;;;;;;5.50;1.20;;;12.30;99.90;;;;;;5085361;28;20020;-77
2021/05/22 03:58:20;;;;;;;1.42;1.10;;;12.30;99.90;;;;;;5087965;28;20725;-76
2021/05/22 04:00:45;;;;;;;1.48;0.93;;;12.30;99.90;;;;;;5083569;28;20406;-76
2021/05/22 04:03:11;;;;;;;2.38;1.27;;;12.40;99.90;;;;;;5084559;28;20241;-76
2021/05/22 04:05:37;;;;;;;2.00;1.10;;;12.40;99.90;;;;;;5087912;28;20056;-76
2021/05/22 04:08:03;;;;;;;1.52;1.00;;;12.40;99.90;;;;;;5084466;28;20114;-76
2021/05/22 04:10:28;;;;;;;3.22;1.05;;;12.50;99.90;;;;;;5087613;28;20036;-75
2021/05/22 04:12:54;;;;;;;4.25;1.20;;;12.60;99.90;;;;;;5087586;28;20027;-76
2021/05/22 04:15:20;;;;;;;1.42;0.98;;;12.60;99.90;;;;;;5088873;28;20020;-76
2021/05/22 04:17:45;;;;;;;2.78;1.70;;;12.60;99.90;;;;;;5089452;28;20323;-76
2021/05/22 04:20:11;;;;;;;1.17;0.90;;;12.60;99.90;;;;;;5089751;28;20028;-75
2021/05/22 04:22:37;;;;;;;0.88;0.88;;;12.60;99.90;;;;;;5082406;28;20032;-76
2021/05/22 04:25:03;;;;;;;6.05;1.20;;;12.60;99.90;;;;;;5088877;28;20119;-76
2021/05/22 04:27:29;;;;;;;1.50;0.90;;;12.70;99.90;;;;;;5083388;28;20524;-76
2021/05/22 04:29:54;;;;;;;1.73;1.20;;;12.70;99.90;;;;;;5088633;28;20031;-76
2021/05/22 04:32:20;;;;;;;2.85;1.20;;;12.80;99.90;;;;;;5083693;28;20220;-76
2021/05/22 04:34:45;;;;;;;2.92;1.10;;;12.90;99.90;;;;;;5085174;28;20473;-76
2021/05/22 04:37:11;;;;;;;8.13;1.40;;;12.90;99.90;;;;;;5085493;28;20530;-76
2021/05/22 04:39:36;;;;;;;0.98;0.90;;;12.90;99.90;;;;;;5089776;28;20032;-76
2021/05/22 04:42:02;;;;;;;1.60;1.10;;;12.90;99.90;;;;;;5084753;28;20063;-76
2021/05/22 04:44:28;;;;;;;1.27;1.17;;;12.90;99.90;;;;;;5086062;28;20059;-76
2021/05/22 04:46:53;;;;;;;3.58;1.45;;;13.00;99.90;;;;;;5089197;28;20060;-76
2021/05/22 04:49:19;;;;;;;2.28;1.27;;;13.00;99.90;;;;;;5079565;28;20032;-76
2021/05/22 04:51:45;;;;;;;1.98;1.00;;;13.10;99.90;;;;;;5086378;28;20061;-76
2021/05/22 04:54:12;;;;;;;2.13;1.05;;;13.10;99.90;;;;;;5086719;28;20716;-76
2021/05/22 04:56:38;;;;;;;5.80;1.30;;;13.20;99.90;;;;;;5084352;28;20085;-76
2021/05/22 04:59:03;;;;;;;4.68;1.65;;;13.20;99.90;;;;;;5086895;28;20062;-76
2021/05/22 05:01:30;;;;;;;2.78;1.30;;;13.20;99.90;;;;;;5085942;28;20395;-77
2021/05/22 05:03:56;;;;;;;1.40;1.30;;;13.30;99.90;;;;;;5085960;28;20110;-77
2021/05/22 05:06:21;;;;;;;2.95;1.70;;;13.40;99.90;;;;;;5085994;28;20054;-76
2021/05/22 05:08:49;;;;;;;1.63;1.13;;;13.40;99.90;;;;;;5085160;28;20407;-77
2021/05/22 05:11:16;;;;;;;2.05;1.25;;;13.50;99.90;;;;;;5088142;28;20025;-77
2021/05/22 05:13:41;;;;;;;1.67;1.27;;;13.50;99.90;;;;;;5086271;28;20028;-78
2021/05/22 05:16:07;;;;;;;3.40;1.23;;;13.50;99.90;;;;;;5085450;28;20027;-77
2021/05/22 05:18:33;;;;;;;2.20;1.25;;;13.50;99.90;;;;;;5085667;28;20036;-77
2021/05/22 05:20:58;;;;;;;1.83;1.17;;;13.50;99.90;;;;;;5086402;28;20028;-77
2021/05/22 05:23:24;;;;;;;1.92;1.23;;;13.50;99.90;;;;;;5086257;28;20036;-76
2021/05/22 05:25:52;;;;;;;4.97;1.48;;;13.60;99.90;;;;;;5088287;28;20585;-77
2021/05/22 05:28:19;;;;;;;2.00;1.52;;;13.60;99.90;;;;;;5085331;28;20035;-76
2021/05/22 05:30:45;;;;;;;1.30;1.10;;;13.70;99.90;;;;;;5083997;28;20115;-77
2021/05/22 05:33:10;;;;;;;2.25;0.95;;;13.70;99.90;;;;;;5085290;28;20456;-76
2021/05/22 05:35:36;;;;;;;4.55;1.10;;;13.90;99.90;;;;;;5080246;28;20046;-77
2021/05/22 05:38:02;;;;;;;2.28;1.55;;;13.90;99.90;;;;;;5085285;28;20039;-77
2021/05/22 05:40:27;;;;;;;5.00;1.27;;;13.90;99.90;;;;;;5080376;28;20036;-77
2021/05/22 05:42:53;;;;;;;1.58;1.10;;;13.90;99.90;;;;;;5080300;28;20036;-77
2021/05/22 05:45:18;;;;;;;1.80;1.30;;;13.90;99.90;;;;;;5081933;28;20024;-77
2021/05/22 05:47:44;;;;;;;2.60;1.35;;;14.00;99.90;;;;;;5083767;28;20028;-77
2021/05/22 05:50:10;;;;;;;2.30;1.20;;;13.90;99.90;;;;;;5082347;28;20033;-77
2021/05/22 05:52:35;;;;;;;1.02;0.90;;;13.90;99.90;;;;;;5083648;28;20517;-77
2021/05/22 05:55:01;;;;;;;0.80;0.80;;;13.90;99.90;;;;;;5085065;28;20029;-77
2021/05/22 05:57:26;;;;;;;2.63;1.00;;;13.80;99.90;;;;;;5081165;28;20028;-76
2021/05/22 05:59:52;;;;;;;1.50;0.90;;;13.70;99.90;;;;;;5084258;28;20043;-76
2021/05/22 06:02:17;;;;;;;0.95;0.80;;;13.60;99.90;;;;;;5086780;28;20028;-76
2021/05/22 06:04:43;;;;;;;2.63;1.02;;;13.50;99.90;;;;;;5084480;28;20394;-76
2021/05/22 06:07:08;;;;;;;2.15;0.95;;;13.30;99.90;;;;;;5083316;28;20028;-76
2021/05/22 06:09:34;;;;;;;0.65;0.65;;;13.30;99.90;;;;;;5083744;28;20107;-76
2021/05/22 06:12:00;;;;;;;2.42;0.85;;;13.10;99.90;;;;;;5082882;28;20166;-76
2021/05/22 06:14:31;;;;;;;2.85;0.93;;;13.00;99.90;;;;;;5083012;28;20101;-76
2021/05/22 06:16:57;;;;;;;1.67;0.70;;;13.10;99.90;;;;;;5086130;28;20054;-76
2021/05/22 06:19:23;;;;;;;0.90;0.80;;;13.20;99.90;;;;;;5081869;28;20466;-76
2021/05/22 06:21:48;;;;;;;0.90;0.52;;;13.20;99.90;;;;;;5083541;28;20039;-76
2021/05/22 06:24:14;;;;;;;1.98;0.63;;;13.30;99.90;;;;;;5080892;28;20172;-76
2021/05/22 06:26:39;;;;;;;1.40;0.75;;;13.20;99.90;;;;;;5087632;28;20474;-76
2021/05/22 06:29:05;;;;;;;2.22;1.00;;;13.20;99.90;;;;;;5083449;28;20032;-76
2021/05/22 06:31:30;;;;;;;1.90;1.25;;;13.30;99.90;;;;;;5084927;28;20085;-76
2021/05/22 06:33:56;;;;;;;0.82;0.50;;;13.30;99.90;;;;;;5085048;28;20016;-76
2021/05/22 06:36:21;;;;;;;2.88;0.75;;;13.20;99.90;;;;;;5085170;28;20081;-76
2021/05/22 06:38:47;;;;;;;0.80;0.70;;;13.30;99.90;;;;;;5082807;28;20066;-76
2021/05/22 06:41:12;;;;;;;2.45;0.80;;;13.30;99.90;;;;;;5084831;28;20069;-76
2021/05/22 06:43:38;;;;;;;1.55;0.70;;;13.40;99.90;;;;;;5083241;28;20066;-77
2021/05/22 06:48:38;;;;;;;2.20;0.85;;;13.50;99.90;;;;;;5082273;28;20020;-75
2021/05/22 06:51:04;;;;;;;1.02;0.70;;;13.60;99.90;;;;;;5083091;28;20038;-75
2021/05/22 06:53:32;;;;;;;2.75;0.95;;;13.70;99.90;;;;;;5081773;28;20628;-77
2021/05/22 06:55:58;;;;;;;1.00;0.80;;;13.80;99.90;;;;;;5084608;28;20024;-75
2021/05/22 06:58:24;;;;;;;2.95;1.35;;;13.90;99.90;;;;;;5083281;28;20467;-76
2021/05/22 07:00:52;;;;;;;4.90;1.48;;;14.00;99.90;;;;;;5084282;28;20564;-77
2021/05/22 07:03:18;;;;;;;1.52;0.70;;;14.10;99.90;;;;;;5081872;28;20047;-76
2021/05/22 07:05:43;;;;;;;1.65;0.90;;;14.20;99.90;;;;;;5079263;28;20114;-76
2021/05/22 07:08:09;;;;;;;0.68;0.68;;;14.30;99.90;;;;;;5086687;28;20040;-76
2021/05/22 07:10:35;;;;;;;1.88;0.75;;;14.20;99.90;;;;;;5091093;28;20051;-76
2021/05/22 07:13:02;;;;;;;1.25;1.00;;;14.30;99.90;;;;;;5090806;28;20054;-76
2021/05/22 07:15:27;;;;;;;1.35;0.90;;;14.30;99.90;;;;;;5090362;28;20028;-73
2021/05/22 07:17:53;;;;;;;5.70;0.90;;;14.40;99.90;;;;;;5090141;28;20020;-75
2021/05/22 07:20:18;;;;;;;1.33;0.68;;;14.40;99.90;;;;;;5090884;28;20490;-75
2021/05/22 07:22:46;;;;;;;4.60;1.23;;;14.50;99.90;;;;;;5091005;28;20050;-75
2021/05/22 07:25:12;;;;;;;1.58;1.10;;;14.50;99.90;;;;;;5091093;28;20043;-75
2021/05/22 07:27:37;;;;;;;2.45;1.48;;;14.60;99.90;;;;;;5089957;28;20162;-75
2021/05/22 07:30:09;;;;;;;1.92;0.70;;;14.70;99.90;;;;;;5089994;28;20127;-77
2021/05/22 07:32:36;;;;;;;0.60;0.60;;;14.70;99.90;;;;;;5090339;28;20031;-77
2021/05/22 07:35:02;;;;;;;3.20;1.02;;;14.60;99.90;;;;;;5089693;28;20024;-77
2021/05/22 07:37:27;;;;;;;0.88;0.80;;;14.60;99.90;;;;;;5090427;28;20080;-77
2021/05/22 07:39:56;;;;;;;1.50;0.70;;;14.70;99.90;;;;;;5090711;28;20028;-82
2021/05/22 07:42:22;;;;;;;1.42;0.75;;;14.60;99.90;;;;;;5089190;28;20592;-78
2021/05/22 07:44:47;;;;;;;0.75;0.57;;;14.50;99.90;;;;;;5090301;28;20039;-82
2021/05/22 07:47:13;;;;;;;1.13;1.00;;;14.50;99.90;;;;;;5088334;28;20482;-75
2021/05/22 07:49:42;;;;;;;1.08;0.77;;;14.50;99.90;;;;;;5084462;28;20028;-76
2021/05/22 07:52:10;;;;;;;0.65;0.65;;;14.60;99.90;;;;;;5088389;28;20067;-75
2021/05/22 07:54:36;;;;;;;3.05;1.00;;;14.80;99.90;;;;;;5089298;28;20032;-78
2021/05/22 07:57:04;;;;;;;3.28;0.73;;;14.90;99.80;;;;;;5089640;28;20089;-77
2021/05/22 07:59:29;;;;;;;2.10;0.70;;;15.00;98.80;;;;;;5089903;28;20064;-78
2021/05/22 08:01:55;;;;;;;3.13;1.00;;;15.20;96.50;;;;;;5089471;28;20891;-81
2021/05/22 08:04:20;;;;;;;1.70;0.63;;;15.30;94.60;;;;;;5089717;28;20052;-77
2021/05/22 08:06:46;;;;;;;0.55;0.52;;;15.30;93.90;;;;;;5086369;28;20020;-75
2021/05/22 08:09:14;;;;;;;4.25;1.10;;;15.30;93.60;;;;;;5090173;28;20020;-75
2021/05/22 08:11:40;;;;;;;1.77;0.60;;;15.20;91.90;;;;;;5088117;28;20082;-75
2021/05/22 08:14:06;;;;;;;2.75;0.82;;;15.20;91.70;;;;;;5087533;28;20024;-77
2021/05/22 08:16:32;;;;;;;0.38;0.38;;;15.20;91.10;;;;;;5087548;28;20024;-76
2021/05/22 08:18:57;;;;;;;1.95;0.70;;;15.30;91.20;;;;;;5087054;28;20031;-76
2021/05/22 08:21:24;;;;;;;3.97;0.75;;;15.40;89.90;;;;;;5086900;28;20054;-76
2021/05/22 08:23:50;;;;;;;1.40;0.65;;;15.40;89.30;;;;;;5086035;28;20039;-77
2021/05/22 08:26:15;;;;;;;1.35;0.43;;;15.40;90.10;;;;;;5087979;28;20034;-76
2021/05/22 08:28:41;;;;;;;1.35;0.50;;;15.40;89.80;;;;;;5088992;28;20112;-76
2021/05/22 08:31:07;;;;;;;0.63;0.45;;;15.40;88.50;;;;;;5086032;28;20404;-80
2021/05/22 08:33:32;;;;;;;0.32;0.32;;;15.40;88.10;;;;;;5084598;28;20020;-83
2021/05/22 08:35:58;;;;;;;2.20;0.70;;;15.30;87.00;;;;;;5073382;28;20020;-82
2021/05/22 08:38:23;;;;;;;0.90;0.60;;;15.30;89.50;;;;;;5073649;28;20107;-81
2021/05/22 08:40:49;;;;;;;0.90;0.47;;;15.40;85.90;;;;;;5077588;28;20024;-86
2021/05/22 08:43:15;;;;;;;1.08;0.60;;;15.40;84.20;;;;;;5083970;28;20111;-77
2021/05/22 08:45:42;;;;;;;1.63;0.85;;;15.30;82.90;;;;;;5089781;28;20032;-81
2021/05/22 08:48:07;;;;;;;2.53;0.60;;;15.30;83.80;;;;;;5086777;28;20036;-79
2021/05/22 08:50:33;;;;;;;2.55;0.70;;;15.40;82.00;;;;;;5087913;28;20020;-82
2021/05/22 08:52:59;;;;;;;0.47;0.47;;;15.40;80.70;;;;;;5087623;28;20048;-84
2021/05/22 08:55:25;;;;;;;1.77;0.75;;;15.50;80.60;;;;;;5089031;28;20031;-82
2021/05/22 08:57:51;;;;;;;2.40;0.63;;;15.50;78.20;;;;;;5084203;28;20032;-77
2021/05/22 09:00:19;;;;;;;2.50;0.75;;;15.60;78.40;;;;;;5088165;28;20028;-77
2021/05/22 09:02:46;;;;;;;1.77;0.60;;;15.60;76.30;;;;;;5085330;28;20074;-77
2021/05/22 09:05:22;;;;;;;1.42;0.60;;;15.60;74.60;;;;;;5087339;28;20032;-80
2021/05/22 09:07:49;;;;;;;1.40;0.77;;;15.70;75.20;;;;;;5087542;28;20036;-79
2021/05/22 09:10:24;;;;;;;7.65;1.25;;;15.80;74.40;;;;;;5086172;28;20054;-80
2021/05/22 09:12:58;;;;;;;3.05;0.50;;;16.00;75.60;;;;;;5089337;28;20025;-82
2021/05/22 09:15:29;;;;;;;1.33;0.82;;;16.30;73.40;;;;;;5076455;28;20092;-84
2021/05/22 09:17:59;;;;;;;0.67;0.57;;;16.30;72.30;;;;;;5088061;28;20024;-83
2021/05/22 09:20:28;;;;;;;2.47;0.50;;;16.40;72.50;;;;;;5088001;28;20274;-79
2021/05/22 09:23:01;;;;;;;4.43;0.40;;;16.50;71.20;;;;;;5088214;28;20040;-82
2021/05/22 09:25:29;;;;;;;3.67;0.93;;;16.60;70.40;;;;;;5087533;28;20047;-83
2021/05/22 09:27:56;;;;;;;1.52;0.50;;;16.70;70.30;;;;;;5088529;28;20092;-77
2021/05/22 09:30:23;;;;;;;3.25;0.50;;;16.90;71.40;;;;;;5086795;28;20031;-79
2021/05/22 09:32:49;;;;;;;2.17;0.85;;;17.10;66.00;;;;;;5086932;28;20154;-74
2021/05/22 09:35:17;;;;;;;1.15;0.70;;;17.00;65.70;;;;;;5086639;28;20111;-73
2021/05/22 09:37:55;;;;;;;2.80;0.47;;;16.90;65.10;;;;;;5088517;28;20032;-73
2021/05/22 09:40:22;;;;;;;0.43;0.35;;;16.70;65.20;;;;;;5082931;28;20031;-84
2021/05/22 09:42:55;;;;;;;1.80;0.50;;;16.50;66.20;;;;;;5086033;28;20024;-90
2021/05/22 09:45:38;;;;;;;1.98;0.60;;;16.20;65.20;;;;;;5086335;28;20034;-76
2021/05/22 09:48:14;;;;;;;7.95;1.10;;;16.30;68.30;;;;;;5084893;28;20525;-73
2021/05/22 09:50:47;;;;;;;0.73;0.45;;;16.50;66.00;;;;;;5085684;28;20020;-76
2021/05/22 09:53:28;;;;;;;2.85;0.85;;;16.70;66.10;;;;;;5077104;28;20641;-74
2021/05/22 09:56:14;;;;;;;1.20;0.40;;;17.00;64.20;;;;;;5082828;28;20031;-75
2021/05/22 09:58:45;;;;;;;0.68;0.68;;;17.10;63.60;;;;;;5086560;28;20387;-75
2021/05/22 10:01:11;;;;;;;1.45;0.35;;;17.10;63.40;;;;;;5087875;28;20020;-75
2021/05/22 10:03:37;;;;;;;0.70;0.57;;;17.10;61.50;;;;;;5083393;28;20027;-74
2021/05/22 10:06:03;;;;;;;0.90;0.38;;;17.20;59.60;;;;;;5083531;28;20028;-77
2021/05/22 10:08:28;;;;;;;1.45;0.70;;;17.40;60.40;;;;;;5088046;28;20063;-75
2021/05/22 10:10:58;;;;;;;1.23;0.50;;;17.50;60.30;;;;;;5085518;28;20055;-75
2021/05/22 10:13:25;;;;;;;0.30;0.30;;;17.70;58.90;;;;;;5087024;28;20024;-75
2021/05/22 10:16:01;;;;;;;0.90;0.63;;;17.70;57.80;;;;;;5086332;28;20024;-76
2021/05/22 10:18:29;;;;;;;1.45;0.35;;;17.50;57.10;;;;;;5078866;28;20032;-75
2021/05/22 10:20:56;;;;;;;2.97;0.40;;;17.40;57.70;;;;;;5084565;28;20164;-74
2021/05/22 10:23:24;;;;;;;2.17;0.77;;;17.20;58.50;;;;;;5086853;28;20088;-75
2021/05/22 10:25:52;;;;;;;0.68;0.32;;;17.00;59.30;;;;;;5085384;28;20024;-74
2021/05/22 10:28:18;;;;;;;3.70;1.05;;;16.80;61.50;;;;;;5087747;28;20027;-76
2021/05/22 10:30:44;;;;;;;9.60;0.73;;;16.50;66.00;;;;;;5086664;28;20020;-76
2021/05/22 10:33:12;;;;;;;1.83;0.68;;;15.80;73.70;;;;;;5086371;28;20032;-76
2021/05/22 10:35:43;;;;;;;0.82;0.60;;;15.00;94.30;;;;;;5083140;28;20035;-75
2021/05/22 10:38:09;;;;;;;;;;;14.30;95.10;;;;;;5086020;28;20032;-76
2021/05/22 10:40:50;;;;;;;2.20;0.52;;;13.80;95.90;;;;;;5085352;28;20397;-75
2021/05/22 10:43:16;;;;;;;1.85;0.70;;;13.70;99.00;;;;;;5088866;28;20450;-72
2021/05/22 10:45:43;;;;;;;0.40;0.40;;;13.70;99.90;;;;;;5091193;28;20070;-75
2021/05/22 10:48:15;;;;;;;0.25;0.25;;;14.00;99.90;;;;;;5088180;28;20043;-75
2021/05/22 10:50:46;;;;;;;0.60;0.35;;;14.30;99.90;;;;;;5089822;28;20055;-75
2021/05/22 10:53:28;;;;;;;3.75;0.77;;;14.40;99.90;;;;;;5090064;28;20112;-76
2021/05/22 10:56:15;;;;;;;2.90;0.55;;;14.50;97.20;;;;;;5086300;28;20029;-74
2021/05/22 10:58:59;;;;;;;0.65;0.60;;;14.60;99.90;;;;;;5087975;28;20060;-73
2021/05/22 11:01:24;;;;;;;1.70;0.88;;;15.00;98.70;;;;;;5090748;28;20414;-74
2021/05/22 11:04:09;;;;;;;1.30;0.60;;;15.40;98.20;;;;;;5089913;28;20038;-73
2021/05/22 11:06:45;;;;;;;1.45;0.60;;;15.60;94.40;;;;;;5084496;28;20073;-74
2021/05/22 11:09:26;;;;;;;2.97;0.60;;;16.00;91.60;;;;;;5086760;28;20020;-74
2021/05/22 11:12:51;;;;;;;1.08;0.75;;;16.40;91.50;;;;;;5088680;28;20081;-73
2021/05/22 11:15:48;;;;;;;1.27;0.65;;;16.80;87.30;;;;;;5076753;28;20024;-74
2021/05/22 11:18:24;;;;;;;0.88;0.57;;;17.50;81.80;;;;;;5089083;28;20032;-74
2021/05/22 11:21:08;;;;;;;0.60;0.57;;;18.00;76.00;;;;;;5090366;28;20036;-74
2021/05/22 11:24:00;;;;;;;1.08;0.70;;;18.20;77.20;;;;;;5089697;28;20048;-74
2021/05/22 11:26:52;;;;;;;;;;;18.10;68.40;;;;;;5091669;28;20028;-73
2021/05/22 11:29:19;;;;;;;3.10;0.80;;;17.70;69.90;;;;;;5089108;28;19916;-74
2021/05/22 11:31:45;;;;;;;1.92;0.73;;;17.10;69.80;;;;;;5090306;28;20025;-73
2021/05/22 11:34:19;;;;;;;1.95;0.60;;;16.60;71.70;;;;;;5090015;28;20035;-73
2021/05/22 11:37:11;;;;;;;5.20;1.10;;;16.20;75.90;;;;;;5081469;28;20028;-76
2021/05/22 11:39:41;;;;;;;0.70;0.70;;;15.90;77.20;;;;;;5077044;28;20392;-73
2021/05/22 11:42:28;;;;;;;0.90;0.52;;;15.70;77.80;;;;;;5087846;28;21809;-74
2021/05/22 11:44:58;;;;;;;1.17;0.55;;;15.60;76.70;;;;;;5081490;28;20038;-71
2021/05/22 11:47:29;;;;;;;3.50;0.85;;;15.70;77.60;;;;;;5075559;28;20270;-73
2021/05/22 11:49:55;;;;;;;1.02;0.57;;;16.00;76.80;;;;;;5089937;28;20024;-74
2021/05/22 11:52:28;;;;;;;0.65;0.50;;;16.50;76.90;;;;;;5087637;28;20050;-74
2021/05/22 11:54:54;;;;;;;0.43;0.43;;;17.70;71.50;;;;;;5084933;28;20021;-73
2021/05/22 11:57:20;;;;;;;3.10;0.32;;;19.00;64.00;;;;;;5078687;28;20651;-73
2021/05/22 11:59:45;;;;;;;1.00;0.40;;;20.10;59.00;;;;;;5088924;28;20119;-74
2021/05/22 12:02:11;;;;;;;1.00;0.50;;;21.10;57.30;;;;;;5088113;28;20534;-74
2021/05/22 12:04:48;;;;;;;1.00;0.65;;;21.90;54.50;;;;;;5090133;28;20028;-74
2021/05/22 12:07:14;;;;;;;2.17;0.50;;;22.30;52.40;;;;;;5088576;28;20091;-74
2021/05/22 12:09:39;;;;;;;2.45;0.38;;;22.00;52.30;;;;;;5084124;28;20533;-74
2021/05/22 12:12:08;;;;;;;1.38;0.68;;;21.10;51.40;;;;;;5089299;28;20028;-74
2021/05/22 12:14:37;;;;;;;0.50;0.30;;;20.00;52.50;;;;;;5089889;28;20050;-73
2021/05/22 12:17:03;;;;;;;0.85;0.50;;;19.20;53.20;;;;;;5089607;28;20032;-74
2021/05/22 12:19:37;;;;;;;0.35;0.35;;;18.70;53.90;;;;;;5089921;28;20069;-73
2021/05/22 12:22:03;;;;;;;1.13;0.50;;;18.70;54.00;;;;;;5086559;28;20434;-74
2021/05/22 12:24:29;;;;;;;0.68;0.50;;;19.00;53.60;;;;;;5089169;28;20028;-73
2021/05/22 12:26:56;;;;;;;0.75;0.40;;;20.00;53.50;;;;;;5089688;28;20044;-73
2021/05/22 12:29:27;;;;;;;5.85;0.70;;;20.10;51.50;;;;;;5089432;28;20028;-74
2021/05/22 12:32:00;;;;;;;4.80;0.63;;;19.80;50.50;;;;;;5089356;28;20028;-74
2021/05/22 12:34:31;;;;;;;1.08;0.57;;;19.40;51.30;;;;;;5089166;28;20031;-73
2021/05/22 12:37:08;;;;;;;2.42;0.60;;;18.90;53.50;;;;;;5089336;28;20028;-74
2021/05/22 12:39:48;;;;;;;1.80;0.60;;;18.50;55.60;;;;;;5089746;28;20095;-73
2021/05/22 12:42:19;;;;;;;3.78;0.93;;;18.60;54.50;;;;;;5089072;28;20086;-73
2021/05/22 12:44:49;;;;;;;0.35;0.35;;;19.10;52.70;;;;;;5089126;28;20023;-73
2021/05/22 12:47:15;;;;;;;0.82;0.50;;;19.10;52.70;;;;;;5089271;28;20048;-74
2021/05/22 12:49:58;;;;;;;0.60;0.60;;;19.30;53.60;;;;;;5089279;28;20052;-73
2021/05/22 12:52:27;;;;;;;0.32;0.32;;;19.70;51.20;;;;;;5086117;28;20063;-77
2021/05/22 12:54:52;;;;;;;2.45;0.73;;;19.60;52.50;;;;;;5088002;28;20043;-75
2021/05/22 12:57:21;;;;;;;1.02;0.40;;;19.40;51.30;;;;;;5087658;28;20028;-81